sensor_id;sensor_type;location;lat;lon;timestamp;temperature;humidity
2889;DHT22;1453;42.708;23.282;2024-02-26T00:00:37;8.70;99.90
2889;DHT22;1453;42.708;23.282;2024-02-26T00:03:03;8.70;99.90
2889;DHT22;1453;42.708;23.282;2024-02-26T00:05:29;8.80;99.90
2889;DHT22;1453;42.708;23.282;2024-02-26T00:07:57;9.00;99.90
2889;DHT22;1453;42.708;23.282;2024-02-26T00:10:22;9.10;99.90
2889;DHT22;1453;42.708;23.282;2024-02-26T00:12:49;9.10;99.90
2889;DHT22;1453;42.708;23.282;2024-02-26T00:15:15;9.10;99.90
2889;DHT22;1453;42.708;23.282;2024-02-26T00:17:41;9.00;99.90
2889;DHT22;1453;42.708;23.282;2024-02-26T00:20:07;9.00;99.90
2889;DHT22;1453;42.708;23.282;2024-02-26T00:22:34;8.90;99.90
2889;DHT22;1453;42.708;23.282;2024-02-26T00:25:00;9.00;99.90
2889;DHT22;1453;42.708;23.282;2024-02-26T00:27:26;8.90;99.90
2889;DHT22;1453;42.708;23.282;2024-02-26T00:29:52;8.90;99.90
2889;DHT22;1453;42.708;23.282;2024-02-26T00:32:18;8.80;99.90
2889;DHT22;1453;42.708;23.282;2024-02-26T00:34:44;8.90;99.90
2889;DHT22;1453;42.708;23.282;2024-02-26T00:37:28;8.80;99.90
2889;DHT22;1453;42.708;23.282;2024-02-26T00:39:54;8.30;99.90
2889;DHT22;1453;42.708;23.282;2024-02-26T00:42:20;8.30;99.90
2889;DHT22;1453;42.708;23.282;2024-02-26T00:44:46;8.30;99.90
2889;DHT22;1453;42.708;23.282;2024-02-26T00:47:12;8.60;99.90
2889;DHT22;1453;42.708;23.282;2024-02-26T00:49:38;8.80;99.90
2889;DHT22;1453;42.708;23.282;2024-02-26T00:52:04;8.80;99.90
2889;DHT22;1453;42.708;23.282;2024-02-26T00:54:30;8.80;99.90
2889;DHT22;1453;42.708;23.282;2024-02-26T00:56:56;8.70;99.90
2889;DHT22;1453;42.708;23.282;2024-02-26T00:59:22;8.10;99.90
2889;DHT22;1453;42.708;23.282;2024-02-26T01:01:48;7.70;99.90
2889;DHT22;1453;42.708;23.282;2024-02-26T01:04:13;7.50;99.90
2889;DHT22;1453;42.708;23.282;2024-02-26T01:06:39;7.50;99.90
2889;DHT22;1453;42.708;23.282;2024-02-26T01:09:06;7.50;99.90
2889;DHT22;1453;42.708;23.282;2024-02-26T01:11:31;7.70;99.90
2889;DHT22;1453;42.708;23.282;2024-02-26T01:13:57;7.70;99.90
2889;DHT22;1453;42.708;23.282;2024-02-26T01:16:24;7.70;99.90
2889;DHT22;1453;42.708;23.282;2024-02-26T01:18:50;7.90;99.90
2889;DHT22;1453;42.708;23.282;2024-02-26T01:21:27;8.00;99.90
2889;DHT22;1453;42.708;23.282;2024-02-26T01:23:54;8.10;99.90
2889;DHT22;1453;42.708;23.282;2024-02-26T01:26:20;8.00;99.90
2889;DHT22;1453;42.708;23.282;2024-02-26T01:28:47;8.20;99.90
2889;DHT22;1453;42.708;23.282;2024-02-26T01:31:13;8.40;99.90
2889;DHT22;1453;42.708;23.282;2024-02-26T01:33:39;8.50;99.90
2889;DHT22;1453;42.708;23.282;2024-02-26T01:36:06;8.60;99.90
2889;DHT22;1453;42.708;23.282;2024-02-26T01:38:32;8.60;99.90
2889;DHT22;1453;42.708;23.282;2024-02-26T01:40:58;8.50;99.90
2889;DHT22;1453;42.708;23.282;2024-02-26T01:43:24;8.70;99.90
2889;DHT22;1453;42.708;23.282;2024-02-26T01:45:50;8.80;99.90
2889;DHT22;1453;42.708;23.282;2024-02-26T01:48:16;8.90;99.90
2889;DHT22;1453;42.708;23.282;2024-02-26T01:50:42;8.80;99.90
2889;DHT22;1453;42.708;23.282;2024-02-26T01:53:08;8.60;99.90
2889;DHT22;1453;42.708;23.282;2024-02-26T01:55:35;8.50;99.90
2889;DHT22;1453;42.708;23.282;2024-02-26T01:58:01;8.30;99.90
2889;DHT22;1453;42.708;23.282;2024-02-26T02:00:27;8.30;99.90
2889;DHT22;1453;42.708;23.282;2024-02-26T02:02:53;8.40;99.90
2889;DHT22;1453;42.708;23.282;2024-02-26T02:05:21;8.40;99.90
2889;DHT22;1453;42.708;23.282;2024-02-26T02:07:47;8.10;99.90
2889;DHT22;1453;42.708;23.282;2024-02-26T02:10:15;8.10;99.90
2889;DHT22;1453;42.708;23.282;2024-02-26T02:12:43;8.20;99.90
2889;DHT22;1453;42.708;23.282;2024-02-26T02:15:09;8.00;99.90
2889;DHT22;1453;42.708;23.282;2024-02-26T02:17:35;8.10;99.90
2889;DHT22;1453;42.708;23.282;2024-02-26T02:20:01;8.00;99.90
2889;DHT22;1453;42.708;23.282;2024-02-26T02:22:29;7.80;99.90
2889;DHT22;1453;42.708;23.282;2024-02-26T02:24:57;7.80;99.90
2889;DHT22;1453;42.708;23.282;2024-02-26T02:27:23;7.90;99.90
2889;DHT22;1453;42.708;23.282;2024-02-26T02:29:49;7.80;99.90
2889;DHT22;1453;42.708;23.282;2024-02-26T02:32:16;7.80;99.90
2889;DHT22;1453;42.708;23.282;2024-02-26T02:34:43;7.80;99.90
2889;DHT22;1453;42.708;23.282;2024-02-26T02:37:09;7.90;99.90
2889;DHT22;1453;42.708;23.282;2024-02-26T02:39:35;8.00;99.90
2889;DHT22;1453;42.708;23.282;2024-02-26T02:42:00;8.00;99.90
2889;DHT22;1453;42.708;23.282;2024-02-26T02:44:26;7.90;99.90
2889;DHT22;1453;42.708;23.282;2024-02-26T02:46:52;7.90;99.90
2889;DHT22;1453;42.708;23.282;2024-02-26T02:49:18;8.00;99.90
2889;DHT22;1453;42.708;23.282;2024-02-26T02:51:44;8.00;99.90
2889;DHT22;1453;42.708;23.282;2024-02-26T02:54:10;7.90;99.90
2889;DHT22;1453;42.708;23.282;2024-02-26T02:56:36;8.00;99.90
2889;DHT22;1453;42.708;23.282;2024-02-26T02:59:02;8.10;99.90
2889;DHT22;1453;42.708;23.282;2024-02-26T03:01:28;8.00;99.90
2889;DHT22;1453;42.708;23.282;2024-02-26T03:03:54;7.90;99.90
2889;DHT22;1453;42.708;23.282;2024-02-26T03:06:20;7.90;99.90
2889;DHT22;1453;42.708;23.282;2024-02-26T03:08:46;7.80;99.90
2889;DHT22;1453;42.708;23.282;2024-02-26T03:11:15;8.00;99.90
2889;DHT22;1453;42.708;23.282;2024-02-26T03:13:41;8.20;99.90
2889;DHT22;1453;42.708;23.282;2024-02-26T03:16:07;8.20;99.90
2889;DHT22;1453;42.708;23.282;2024-02-26T03:18:33;8.50;99.90
2889;DHT22;1453;42.708;23.282;2024-02-26T03:21:00;8.60;99.90
2889;DHT22;1453;42.708;23.282;2024-02-26T03:23:25;8.70;99.90
2889;DHT22;1453;42.708;23.282;2024-02-26T03:25:51;8.70;99.90
2889;DHT22;1453;42.708;23.282;2024-02-26T03:28:17;8.50;99.90
2889;DHT22;1453;42.708;23.282;2024-02-26T03:30:43;8.40;99.90
2889;DHT22;1453;42.708;23.282;2024-02-26T03:33:09;8.40;99.90
2889;DHT22;1453;42.708;23.282;2024-02-26T03:35:35;8.30;99.90
2889;DHT22;1453;42.708;23.282;2024-02-26T03:38:01;8.50;99.90
2889;DHT22;1453;42.708;23.282;2024-02-26T03:40:28;8.60;99.90
2889;DHT22;1453;42.708;23.282;2024-02-26T03:42:54;8.40;99.90
2889;DHT22;1453;42.708;23.282;2024-02-26T03:45:19;8.30;99.90
2889;DHT22;1453;42.708;23.282;2024-02-26T03:47:45;8.40;99.90
2889;DHT22;1453;42.708;23.282;2024-02-26T03:50:11;8.60;99.90
2889;DHT22;1453;42.708;23.282;2024-02-26T03:52:37;8.70;99.90
2889;DHT22;1453;42.708;23.282;2024-02-26T03:55:03;8.70;99.90
2889;DHT22;1453;42.708;23.282;2024-02-26T03:57:29;8.60;99.90
2889;DHT22;1453;42.708;23.282;2024-02-26T03:59:56;8.50;99.90
2889;DHT22;1453;42.708;23.282;2024-02-26T04:02:22;8.70;99.90
2889;DHT22;1453;42.708;23.282;2024-02-26T04:04:49;8.90;99.90
2889;DHT22;1453;42.708;23.282;2024-02-26T04:07:15;9.00;99.90
2889;DHT22;1453;42.708;23.282;2024-02-26T04:09:40;8.80;99.90
2889;DHT22;1453;42.708;23.282;2024-02-26T04:12:07;8.90;99.90
2889;DHT22;1453;42.708;23.282;2024-02-26T04:14:33;8.80;99.90
2889;DHT22;1453;42.708;23.282;2024-02-26T04:16:59;8.80;99.90
2889;DHT22;1453;42.708;23.282;2024-02-26T04:19:24;8.80;99.90
2889;DHT22;1453;42.708;23.282;2024-02-26T04:21:51;8.70;99.90
2889;DHT22;1453;42.708;23.282;2024-02-26T04:24:17;8.30;99.90
2889;DHT22;1453;42.708;23.282;2024-02-26T04:26:43;8.10;99.90
2889;DHT22;1453;42.708;23.282;2024-02-26T04:29:08;8.10;99.90
2889;DHT22;1453;42.708;23.282;2024-02-26T04:31:34;8.10;99.90
2889;DHT22;1453;42.708;23.282;2024-02-26T04:34:00;8.20;99.90
2889;DHT22;1453;42.708;23.282;2024-02-26T04:36:26;8.30;99.90
2889;DHT22;1453;42.708;23.282;2024-02-26T04:38:52;8.40;99.90
2889;DHT22;1453;42.708;23.282;2024-02-26T04:41:21;8.40;99.90
2889;DHT22;1453;42.708;23.282;2024-02-26T04:43:47;8.50;99.90
2889;DHT22;1453;42.708;23.282;2024-02-26T04:46:13;8.70;99.90
2889;DHT22;1453;42.708;23.282;2024-02-26T04:48:39;8.70;99.90
2889;DHT22;1453;42.708;23.282;2024-02-26T04:53:51;8.80;99.90
2889;DHT22;1453;42.708;23.282;2024-02-26T04:56:22;8.80;99.90
2889;DHT22;1453;42.708;23.282;2024-02-26T04:58:48;8.90;99.90
2889;DHT22;1453;42.708;23.282;2024-02-26T05:01:15;8.80;99.90
2889;DHT22;1453;42.708;23.282;2024-02-26T05:03:42;8.60;99.90
2889;DHT22;1453;42.708;23.282;2024-02-26T05:06:09;8.60;99.90
2889;DHT22;1453;42.708;23.282;2024-02-26T05:08:35;8.40;99.90
2889;DHT22;1453;42.708;23.282;2024-02-26T05:11:04;8.30;99.90
2889;DHT22;1453;42.708;23.282;2024-02-26T05:13:31;8.10;99.90
2889;DHT22;1453;42.708;23.282;2024-02-26T05:15:57;8.00;99.90
2889;DHT22;1453;42.708;23.282;2024-02-26T05:18:23;8.00;99.90
2889;DHT22;1453;42.708;23.282;2024-02-26T05:20:49;8.00;99.90
2889;DHT22;1453;42.708;23.282;2024-02-26T05:23:15;7.90;99.90
2889;DHT22;1453;42.708;23.282;2024-02-26T05:25:50;7.80;99.90
2889;DHT22;1453;42.708;23.282;2024-02-26T05:28:15;7.70;99.90
2889;DHT22;1453;42.708;23.282;2024-02-26T05:30:42;7.80;99.90
2889;DHT22;1453;42.708;23.282;2024-02-26T05:33:11;7.90;99.90
2889;DHT22;1453;42.708;23.282;2024-02-26T05:35:37;8.00;99.90
2889;DHT22;1453;42.708;23.282;2024-02-26T05:38:03;8.10;99.90
2889;DHT22;1453;42.708;23.282;2024-02-26T05:40:29;8.10;99.90
2889;DHT22;1453;42.708;23.282;2024-02-26T05:42:56;8.10;99.90
2889;DHT22;1453;42.708;23.282;2024-02-26T05:45:22;8.10;99.90
2889;DHT22;1453;42.708;23.282;2024-02-26T05:47:48;8.20;99.90
2889;DHT22;1453;42.708;23.282;2024-02-26T05:50:15;8.30;99.90
2889;DHT22;1453;42.708;23.282;2024-02-26T05:52:41;8.40;99.90
2889;DHT22;1453;42.708;23.282;2024-02-26T05:55:08;8.50;99.90
2889;DHT22;1453;42.708;23.282;2024-02-26T05:57:35;8.60;99.90
2889;DHT22;1453;42.708;23.282;2024-02-26T06:00:01;8.60;99.90
2889;DHT22;1453;42.708;23.282;2024-02-26T06:02:30;8.70;99.90
2889;DHT22;1453;42.708;23.282;2024-02-26T06:04:57;8.70;99.90
2889;DHT22;1453;42.708;23.282;2024-02-26T06:07:23;8.70;99.90
2889;DHT22;1453;42.708;23.282;2024-02-26T06:09:49;8.80;99.90
2889;DHT22;1453;42.708;23.282;2024-02-26T06:12:15;8.70;99.90
2889;DHT22;1453;42.708;23.282;2024-02-26T06:14:44;8.60;99.90
2889;DHT22;1453;42.708;23.282;2024-02-26T06:17:10;8.50;99.90
2889;DHT22;1453;42.708;23.282;2024-02-26T06:19:36;8.40;99.90
2889;DHT22;1453;42.708;23.282;2024-02-26T06:22:02;8.20;99.90
2889;DHT22;1453;42.708;23.282;2024-02-26T06:24:28;8.10;99.90
2889;DHT22;1453;42.708;23.282;2024-02-26T06:26:53;8.00;99.90
2889;DHT22;1453;42.708;23.282;2024-02-26T06:29:19;8.40;99.90
2889;DHT22;1453;42.708;23.282;2024-02-26T06:31:45;8.60;99.90
2889;DHT22;1453;42.708;23.282;2024-02-26T06:34:13;8.80;99.90
2889;DHT22;1453;42.708;23.282;2024-02-26T06:36:38;9.00;99.90
2889;DHT22;1453;42.708;23.282;2024-02-26T06:39:04;9.00;99.90
2889;DHT22;1453;42.708;23.282;2024-02-26T06:41:31;9.10;99.90
2889;DHT22;1453;42.708;23.282;2024-02-26T06:43:57;9.20;99.90
2889;DHT22;1453;42.708;23.282;2024-02-26T06:46:23;9.20;99.90
2889;DHT22;1453;42.708;23.282;2024-02-26T06:48:49;9.30;99.90
2889;DHT22;1453;42.708;23.282;2024-02-26T06:51:15;9.40;99.90
2889;DHT22;1453;42.708;23.282;2024-02-26T06:53:41;9.40;99.90
2889;DHT22;1453;42.708;23.282;2024-02-26T06:56:07;9.40;99.90
2889;DHT22;1453;42.708;23.282;2024-02-26T06:58:33;9.30;99.90
2889;DHT22;1453;42.708;23.282;2024-02-26T07:00:59;9.30;99.90
2889;DHT22;1453;42.708;23.282;2024-02-26T07:03:25;9.30;99.90
2889;DHT22;1453;42.708;23.282;2024-02-26T07:05:51;9.40;99.90
2889;DHT22;1453;42.708;23.282;2024-02-26T07:08:18;9.30;99.90
2889;DHT22;1453;42.708;23.282;2024-02-26T07:10:44;9.20;99.90
2889;DHT22;1453;42.708;23.282;2024-02-26T07:13:10;9.30;99.90
2889;DHT22;1453;42.708;23.282;2024-02-26T07:15:36;9.30;99.90
2889;DHT22;1453;42.708;23.282;2024-02-26T07:18:01;9.30;99.90
2889;DHT22;1453;42.708;23.282;2024-02-26T07:20:31;9.40;99.90
2889;DHT22;1453;42.708;23.282;2024-02-26T07:22:58;9.30;99.90
2889;DHT22;1453;42.708;23.282;2024-02-26T07:25:24;9.30;99.90
2889;DHT22;1453;42.708;23.282;2024-02-26T07:27:50;9.20;99.90
2889;DHT22;1453;42.708;23.282;2024-02-26T07:30:16;9.20;99.90
2889;DHT22;1453;42.708;23.282;2024-02-26T07:32:45;9.10;99.90
2889;DHT22;1453;42.708;23.282;2024-02-26T07:35:11;9.10;99.90
2889;DHT22;1453;42.708;23.282;2024-02-26T07:37:37;9.20;99.90
2889;DHT22;1453;42.708;23.282;2024-02-26T07:40:03;9.10;99.90
2889;DHT22;1453;42.708;23.282;2024-02-26T07:42:31;9.00;99.90
2889;DHT22;1453;42.708;23.282;2024-02-26T07:44:57;9.00;99.90
2889;DHT22;1453;42.708;23.282;2024-02-26T07:47:23;8.90;99.90
2889;DHT22;1453;42.708;23.282;2024-02-26T07:49:48;9.00;99.90
2889;DHT22;1453;42.708;23.282;2024-02-26T07:52:14;9.10;99.90
2889;DHT22;1453;42.708;23.282;2024-02-26T07:54:40;9.20;99.90
2889;DHT22;1453;42.708;23.282;2024-02-26T07:57:06;9.40;99.90
2889;DHT22;1453;42.708;23.282;2024-02-26T07:59:32;9.60;99.90
2889;DHT22;1453;42.708;23.282;2024-02-26T08:01:59;9.70;99.90
2889;DHT22;1453;42.708;23.282;2024-02-26T08:04:26;10.00;99.90
2889;DHT22;1453;42.708;23.282;2024-02-26T08:06:52;10.00;99.90
2889;DHT22;1453;42.708;23.282;2024-02-26T08:09:18;9.80;99.90
2889;DHT22;1453;42.708;23.282;2024-02-26T08:11:43;9.90;99.90
2889;DHT22;1453;42.708;23.282;2024-02-26T08:14:09;9.80;99.90
2889;DHT22;1453;42.708;23.282;2024-02-26T08:16:35;10.00;99.90
2889;DHT22;1453;42.708;23.282;2024-02-26T08:19:01;9.90;99.90
2889;DHT22;1453;42.708;23.282;2024-02-26T08:21:27;10.00;99.90
2889;DHT22;1453;42.708;23.282;2024-02-26T08:23:53;10.20;99.90
2889;DHT22;1453;42.708;23.282;2024-02-26T08:26:20;10.00;99.90
2889;DHT22;1453;42.708;23.282;2024-02-26T08:28:48;10.20;99.90
2889;DHT22;1453;42.708;23.282;2024-02-26T08:31:14;10.30;99.90
2889;DHT22;1453;42.708;23.282;2024-02-26T08:33:40;10.30;99.90
2889;DHT22;1453;42.708;23.282;2024-02-26T08:36:06;10.70;99.90
2889;DHT22;1453;42.708;23.282;2024-02-26T08:38:32;10.90;99.90
2889;DHT22;1453;42.708;23.282;2024-02-26T08:41:01;10.80;99.90
2889;DHT22;1453;42.708;23.282;2024-02-26T08:43:28;10.60;99.90
2889;DHT22;1453;42.708;23.282;2024-02-26T08:45:54;10.70;99.90
2889;DHT22;1453;42.708;23.282;2024-02-26T08:48:20;10.80;99.90
2889;DHT22;1453;42.708;23.282;2024-02-26T08:50:46;11.00;99.90
2889;DHT22;1453;42.708;23.282;2024-02-26T08:53:11;11.30;99.90
2889;DHT22;1453;42.708;23.282;2024-02-26T08:55:37;11.30;99.90
2889;DHT22;1453;42.708;23.282;2024-02-26T08:58:03;11.50;99.90
2889;DHT22;1453;42.708;23.282;2024-02-26T09:00:29;11.30;99.90
2889;DHT22;1453;42.708;23.282;2024-02-26T09:02:56;11.40;99.90
2889;DHT22;1453;42.708;23.282;2024-02-26T09:05:22;11.40;99.90
2889;DHT22;1453;42.708;23.282;2024-02-26T09:07:48;11.30;99.90
2889;DHT22;1453;42.708;23.282;2024-02-26T09:10:14;11.20;99.90
2889;DHT22;1453;42.708;23.282;2024-02-26T09:12:40;11.20;99.90
2889;DHT22;1453;42.708;23.282;2024-02-26T09:15:07;11.40;99.90
2889;DHT22;1453;42.708;23.282;2024-02-26T09:17:33;11.50;99.90
2889;DHT22;1453;42.708;23.282;2024-02-26T09:19:59;11.70;99.90
2889;DHT22;1453;42.708;23.282;2024-02-26T09:22:25;11.80;99.90
2889;DHT22;1453;42.708;23.282;2024-02-26T09:24:51;11.90;99.90
2889;DHT22;1453;42.708;23.282;2024-02-26T09:27:19;12.10;99.90
2889;DHT22;1453;42.708;23.282;2024-02-26T09:29:44;12.20;99.90
2889;DHT22;1453;42.708;23.282;2024-02-26T09:32:10;12.70;99.90
2889;DHT22;1453;42.708;23.282;2024-02-26T09:34:36;13.00;99.90
2889;DHT22;1453;42.708;23.282;2024-02-26T09:37:02;13.00;99.90
2889;DHT22;1453;42.708;23.282;2024-02-26T09:39:28;12.80;99.90
2889;DHT22;1453;42.708;23.282;2024-02-26T09:41:55;12.70;99.90
2889;DHT22;1453;42.708;23.282;2024-02-26T09:44:22;12.90;99.90
2889;DHT22;1453;42.708;23.282;2024-02-26T09:46:50;13.00;99.90
2889;DHT22;1453;42.708;23.282;2024-02-26T09:49:19;13.30;99.90
2889;DHT22;1453;42.708;23.282;2024-02-26T09:51:49;13.40;99.90
2889;DHT22;1453;42.708;23.282;2024-02-26T09:54:17;13.20;99.90
2889;DHT22;1453;42.708;23.282;2024-02-26T09:56:43;13.00;99.90
2889;DHT22;1453;42.708;23.282;2024-02-26T09:59:15;13.10;99.90
2889;DHT22;1453;42.708;23.282;2024-02-26T10:01:44;13.30;99.90
2889;DHT22;1453;42.708;23.282;2024-02-26T10:04:12;13.40;99.90
2889;DHT22;1453;42.708;23.282;2024-02-26T10:06:39;13.60;99.90
2889;DHT22;1453;42.708;23.282;2024-02-26T10:09:06;13.70;99.90
2889;DHT22;1453;42.708;23.282;2024-02-26T10:11:35;13.60;99.90
2889;DHT22;1453;42.708;23.282;2024-02-26T10:14:03;13.70;99.90
2889;DHT22;1453;42.708;23.282;2024-02-26T10:16:29;13.40;99.90
2889;DHT22;1453;42.708;23.282;2024-02-26T10:18:55;13.70;99.90
2889;DHT22;1453;42.708;23.282;2024-02-26T10:21:21;14.00;99.90
2889;DHT22;1453;42.708;23.282;2024-02-26T10:23:48;13.90;99.90
2889;DHT22;1453;42.708;23.282;2024-02-26T10:26:16;14.10;99.90
2889;DHT22;1453;42.708;23.282;2024-02-26T10:28:45;13.90;99.90
2889;DHT22;1453;42.708;23.282;2024-02-26T10:31:13;13.70;99.90
2889;DHT22;1453;42.708;23.282;2024-02-26T10:33:41;13.80;99.90
2889;DHT22;1453;42.708;23.282;2024-02-26T10:36:08;13.50;99.90
2889;DHT22;1453;42.708;23.282;2024-02-26T10:38:35;13.50;99.90
2889;DHT22;1453;42.708;23.282;2024-02-26T10:41:03;13.80;99.90
2889;DHT22;1453;42.708;23.282;2024-02-26T10:43:30;13.80;99.90
2889;DHT22;1453;42.708;23.282;2024-02-26T10:45:57;13.70;99.90
2889;DHT22;1453;42.708;23.282;2024-02-26T10:48:23;13.50;99.90
2889;DHT22;1453;42.708;23.282;2024-02-26T10:50:50;13.50;99.90
2889;DHT22;1453;42.708;23.282;2024-02-26T10:53:23;13.50;99.90
2889;DHT22;1453;42.708;23.282;2024-02-26T10:55:56;13.60;99.90
2889;DHT22;1453;42.708;23.282;2024-02-26T10:58:24;13.50;99.90
2889;DHT22;1453;42.708;23.282;2024-02-26T11:00:51;13.60;99.90
2889;DHT22;1453;42.708;23.282;2024-02-26T11:03:18;13.60;99.90
2889;DHT22;1453;42.708;23.282;2024-02-26T11:05:51;13.60;99.90
2889;DHT22;1453;42.708;23.282;2024-02-26T11:08:21;13.50;99.90
2889;DHT22;1453;42.708;23.282;2024-02-26T11:10:48;13.70;99.90
2889;DHT22;1453;42.708;23.282;2024-02-26T11:13:18;14.00;99.90
2889;DHT22;1453;42.708;23.282;2024-02-26T11:15:46;13.80;99.90
2889;DHT22;1453;42.708;23.282;2024-02-26T11:18:15;13.70;99.90
2889;DHT22;1453;42.708;23.282;2024-02-26T11:20:42;13.60;99.90
2889;DHT22;1453;42.708;23.282;2024-02-26T11:23:09;13.80;99.90
2889;DHT22;1453;42.708;23.282;2024-02-26T11:25:38;13.80;99.90
2889;DHT22;1453;42.708;23.282;2024-02-26T11:28:15;13.70;99.90
2889;DHT22;1453;42.708;23.282;2024-02-26T11:30:45;13.80;99.90
2889;DHT22;1453;42.708;23.282;2024-02-26T11:33:14;13.80;99.90
2889;DHT22;1453;42.708;23.282;2024-02-26T11:35:40;13.70;99.90
2889;DHT22;1453;42.708;23.282;2024-02-26T11:38:07;13.60;99.90
2889;DHT22;1453;42.708;23.282;2024-02-26T11:40:38;13.80;99.90
2889;DHT22;1453;42.708;23.282;2024-02-26T11:43:07;13.90;99.90
2889;DHT22;1453;42.708;23.282;2024-02-26T11:48:20;14.00;99.90
2889;DHT22;1453;42.708;23.282;2024-02-26T11:50:52;14.00;99.90
2889;DHT22;1453;42.708;23.282;2024-02-26T11:53:24;14.00;99.90
2889;DHT22;1453;42.708;23.282;2024-02-26T11:56:13;14.10;99.90
2889;DHT22;1453;42.708;23.282;2024-02-26T11:58:46;14.10;99.90
2889;DHT22;1453;42.708;23.282;2024-02-26T12:01:46;13.90;99.90
2889;DHT22;1453;42.708;23.282;2024-02-26T12:04:21;13.90;99.90
2889;DHT22;1453;42.708;23.282;2024-02-26T12:06:58;13.80;99.90
2889;DHT22;1453;42.708;23.282;2024-02-26T12:09:40;14.00;99.90
2889;DHT22;1453;42.708;23.282;2024-02-26T12:12:12;14.10;99.90
2889;DHT22;1453;42.708;23.282;2024-02-26T12:14:53;14.20;99.90
2889;DHT22;1453;42.708;23.282;2024-02-26T12:17:25;14.50;99.90
2889;DHT22;1453;42.708;23.282;2024-02-26T12:19:52;14.60;99.60
2889;DHT22;1453;42.708;23.282;2024-02-26T12:22:19;14.60;99.40
2889;DHT22;1453;42.708;23.282;2024-02-26T12:24:45;14.50;98.10
2889;DHT22;1453;42.708;23.282;2024-02-26T12:27:11;14.60;98.60
2889;DHT22;1453;42.708;23.282;2024-02-26T12:29:38;14.50;97.60
2889;DHT22;1453;42.708;23.282;2024-02-26T12:32:05;14.30;97.40
2889;DHT22;1453;42.708;23.282;2024-02-26T12:34:32;14.30;97.20
2889;DHT22;1453;42.708;23.282;2024-02-26T12:36:58;14.60;96.30
2889;DHT22;1453;42.708;23.282;2024-02-26T12:39:24;14.50;95.50
2889;DHT22;1453;42.708;23.282;2024-02-26T12:41:50;14.70;95.10
2889;DHT22;1453;42.708;23.282;2024-02-26T12:44:17;15.10;93.80
2889;DHT22;1453;42.708;23.282;2024-02-26T12:46:46;15.00;92.80
2889;DHT22;1453;42.708;23.282;2024-02-26T12:49:16;15.00;92.20
2889;DHT22;1453;42.708;23.282;2024-02-26T12:51:45;14.90;91.90
2889;DHT22;1453;42.708;23.282;2024-02-26T12:54:11;15.00;92.10
2889;DHT22;1453;42.708;23.282;2024-02-26T12:56:38;15.10;91.50
2889;DHT22;1453;42.708;23.282;2024-02-26T12:59:07;15.10;91.40
2889;DHT22;1453;42.708;23.282;2024-02-26T13:01:34;15.10;90.50
2889;DHT22;1453;42.708;23.282;2024-02-26T13:04:02;15.10;91.10
2889;DHT22;1453;42.708;23.282;2024-02-26T13:06:32;15.10;89.90
2889;DHT22;1453;42.708;23.282;2024-02-26T13:09:00;15.10;89.60
2889;DHT22;1453;42.708;23.282;2024-02-26T13:11:28;15.30;89.60
2889;DHT22;1453;42.708;23.282;2024-02-26T13:13:55;15.30;88.30
2889;DHT22;1453;42.708;23.282;2024-02-26T13:16:24;15.10;88.80
2889;DHT22;1453;42.708;23.282;2024-02-26T13:18:51;15.20;89.40
2889;DHT22;1453;42.708;23.282;2024-02-26T13:21:18;15.30;88.70
2889;DHT22;1453;42.708;23.282;2024-02-26T13:23:48;15.20;89.60
2889;DHT22;1453;42.708;23.282;2024-02-26T13:26:22;15.20;89.50
2889;DHT22;1453;42.708;23.282;2024-02-26T13:29:02;15.10;88.60
2889;DHT22;1453;42.708;23.282;2024-02-26T13:31:29;15.00;89.90
2889;DHT22;1453;42.708;23.282;2024-02-26T13:33:55;15.00;89.70
2889;DHT22;1453;42.708;23.282;2024-02-26T13:36:24;15.00;89.70
2889;DHT22;1453;42.708;23.282;2024-02-26T13:38:55;15.10;88.40
2889;DHT22;1453;42.708;23.282;2024-02-26T13:41:22;15.10;87.60
2889;DHT22;1453;42.708;23.282;2024-02-26T13:43:48;14.90;87.80
2889;DHT22;1453;42.708;23.282;2024-02-26T13:49:00;14.80;87.90
2889;DHT22;1453;42.708;23.282;2024-02-26T13:51:25;14.80;88.30
2889;DHT22;1453;42.708;23.282;2024-02-26T13:53:51;14.90;88.30
2889;DHT22;1453;42.708;23.282;2024-02-26T13:56:17;15.10;88.60
2889;DHT22;1453;42.708;23.282;2024-02-26T13:58:43;15.10;87.90
2889;DHT22;1453;42.708;23.282;2024-02-26T14:01:09;15.00;86.50
2889;DHT22;1453;42.708;23.282;2024-02-26T14:03:35;15.10;86.50
2889;DHT22;1453;42.708;23.282;2024-02-26T14:06:01;15.00;84.80
2889;DHT22;1453;42.708;23.282;2024-02-26T14:08:27;14.80;85.40
2889;DHT22;1453;42.708;23.282;2024-02-26T14:10:53;14.80;85.50
2889;DHT22;1453;42.708;23.282;2024-02-26T14:13:19;14.90;86.20
2889;DHT22;1453;42.708;23.282;2024-02-26T14:15:44;14.80;85.10
2889;DHT22;1453;42.708;23.282;2024-02-26T14:18:10;14.70;85.00
2889;DHT22;1453;42.708;23.282;2024-02-26T14:20:36;14.60;84.90
2889;DHT22;1453;42.708;23.282;2024-02-26T14:23:02;14.70;84.70
2889;DHT22;1453;42.708;23.282;2024-02-26T14:25:28;14.80;84.80
2889;DHT22;1453;42.708;23.282;2024-02-26T14:27:54;15.00;84.10
2889;DHT22;1453;42.708;23.282;2024-02-26T14:30:20;15.10;83.30
2889;DHT22;1453;42.708;23.282;2024-02-26T14:32:46;15.00;83.30
2889;DHT22;1453;42.708;23.282;2024-02-26T14:35:12;15.00;83.40
2889;DHT22;1453;42.708;23.282;2024-02-26T14:37:37;14.90;81.90
2889;DHT22;1453;42.708;23.282;2024-02-26T14:40:04;14.80;82.70
2889;DHT22;1453;42.708;23.282;2024-02-26T14:42:31;14.70;82.30
2889;DHT22;1453;42.708;23.282;2024-02-26T14:44:57;14.70;82.20
2889;DHT22;1453;42.708;23.282;2024-02-26T14:47:23;14.70;82.20
2889;DHT22;1453;42.708;23.282;2024-02-26T14:49:49;14.60;81.80
2889;DHT22;1453;42.708;23.282;2024-02-26T14:52:17;14.60;81.70
2889;DHT22;1453;42.708;23.282;2024-02-26T14:54:43;14.60;81.10
2889;DHT22;1453;42.708;23.282;2024-02-26T14:57:10;14.60;81.40
2889;DHT22;1453;42.708;23.282;2024-02-26T14:59:35;14.50;81.40
2889;DHT22;1453;42.708;23.282;2024-02-26T15:02:05;14.40;81.60
2889;DHT22;1453;42.708;23.282;2024-02-26T15:04:31;14.60;82.00
2889;DHT22;1453;42.708;23.282;2024-02-26T15:06:57;14.60;81.10
2889;DHT22;1453;42.708;23.282;2024-02-26T15:09:23;14.50;81.00
2889;DHT22;1453;42.708;23.282;2024-02-26T15:11:49;14.50;81.00
2889;DHT22;1453;42.708;23.282;2024-02-26T15:14:15;14.50;80.20
2889;DHT22;1453;42.708;23.282;2024-02-26T15:16:41;14.40;78.70
2889;DHT22;1453;42.708;23.282;2024-02-26T15:19:07;14.30;77.80
2889;DHT22;1453;42.708;23.282;2024-02-26T15:21:33;14.30;78.10
2889;DHT22;1453;42.708;23.282;2024-02-26T15:23:59;14.30;78.30
2889;DHT22;1453;42.708;23.282;2024-02-26T15:26:24;14.20;77.40
2889;DHT22;1453;42.708;23.282;2024-02-26T15:28:52;14.30;77.80
2889;DHT22;1453;42.708;23.282;2024-02-26T15:31:19;14.30;77.80
2889;DHT22;1453;42.708;23.282;2024-02-26T15:33:45;14.40;77.50
2889;DHT22;1453;42.708;23.282;2024-02-26T15:36:11;14.30;77.50
2889;DHT22;1453;42.708;23.282;2024-02-26T15:38:37;14.20;77.60
2889;DHT22;1453;42.708;23.282;2024-02-26T15:41:13;14.20;77.70
2889;DHT22;1453;42.708;23.282;2024-02-26T15:43:40;14.20;77.50
2889;DHT22;1453;42.708;23.282;2024-02-26T15:46:06;14.20;78.60
2889;DHT22;1453;42.708;23.282;2024-02-26T15:48:33;14.20;78.10
2889;DHT22;1453;42.708;23.282;2024-02-26T15:50:59;14.20;77.80
2889;DHT22;1453;42.708;23.282;2024-02-26T15:53:25;14.20;78.00
2889;DHT22;1453;42.708;23.282;2024-02-26T15:55:51;14.10;77.80
2889;DHT22;1453;42.708;23.282;2024-02-26T15:58:17;14.10;77.90
2889;DHT22;1453;42.708;23.282;2024-02-26T16:00:43;14.00;77.40